Terminal Aerodrome Forecast
Issued by NWS

Home | Current Version | Previous Version | Text Only | Print | Product List | Glossary On
Versions: 1 2 3 4 5 6 7 8 9 10 11 12 13 14 15 16 17 18 19 20 21 22 23 24 25 26
188
FTUS43 KGRB 171720
TAFCWA
TAF
KCWA 171720Z 1718/1818 13005KT 2SM BR OVC003
      TEMPO 1719/1722 4SM BR OVC005
     FM180200 25004KT 2SM BR OVC003
     FM181600 23008KT 4SM BR OVC005
      TEMPO 1817/1818 P6SM NSW BKN009=

USA.gov is the U.S. government's official web portal to all federal, state and local government web resources and services.